createdAt,value
2023-01-11T00:00:05.762Z,99360.09
2023-01-11T00:01:37.766Z,99367.81
2023-01-11T00:03:09.946Z,99365.25
2023-01-11T00:04:42.033Z,99366.09
2023-01-11T00:06:14.143Z,99369.53
2023-01-11T00:07:46.165Z,99370.38
2023-01-11T00:09:18.241Z,99372.91
2023-01-11T00:10:51.075Z,99367.81
2023-01-11T00:12:23.201Z,99372.94
2023-01-11T00:13:55.156Z,99363.53
2023-01-11T00:15:27.366Z,99370.38
2023-01-11T00:17:00.328Z,99377.22
2023-01-11T00:18:32.369Z,99375.50
2023-01-11T00:20:05.015Z,99381.47
2023-01-11T00:21:37.054Z,99376.34
2023-01-11T00:23:09.297Z,99382.31
2023-01-11T00:24:41.290Z,99390.03
2023-01-11T00:26:14.009Z,99388.31
2023-01-11T00:27:47.853Z,99396.00
2023-01-11T00:30:52.675Z,99391.75
2023-01-11T00:32:24.857Z,99402.81
2023-01-11T00:33:57.680Z,99405.41
2023-01-11T00:35:31.769Z,99403.69
2023-01-11T00:37:04.769Z,99401.97
2023-01-11T00:38:51.954Z,99409.69
2023-01-11T00:40:24.559Z,99407.09
2023-01-11T00:42:15.243Z,99397.69
2023-01-11T00:44:05.687Z,99407.09
2023-01-11T00:45:56.660Z,99396.84
2023-01-11T00:47:47.110Z,99399.44
2023-01-11T00:49:19.244Z,99396.88
2023-01-11T00:50:54.736Z,99402.84
2023-01-11T00:52:26.839Z,99400.28
2023-01-11T00:53:59.212Z,99408.81
2023-01-11T00:55:34.422Z,99403.69
2023-01-11T00:57:07.751Z,99405.38
2023-01-11T00:58:39.900Z,99407.09
2023-01-11T01:00:12.581Z,99411.41
2023-01-11T01:01:45.176Z,99420.78
2023-01-11T01:03:17.195Z,99417.34
2023-01-11T01:04:49.252Z,99421.63
2023-01-11T01:06:21.370Z,99418.22
2023-01-11T01:07:53.685Z,99419.06
2023-01-11T01:09:26.764Z,99414.78
2023-01-11T01:10:58.717Z,99416.50
2023-01-11T01:12:49.047Z,99419.06
2023-01-11T01:14:27.039Z,99419.91
2023-01-11T01:15:59.523Z,99417.38
2023-01-11T01:17:31.629Z,99420.78
2023-01-11T01:19:04.369Z,99424.22
2023-01-11T01:20:36.346Z,99418.22
2023-01-11T01:22:08.436Z,99418.22
2023-01-11T01:23:40.399Z,99429.31
2023-01-11T01:25:12.555Z,99421.63
2023-01-11T01:26:44.621Z,99425.03
2023-01-11T01:28:19.033Z,99425.91
2023-01-11T01:29:51.100Z,99433.56
2023-01-11T01:31:23.145Z,99440.38
2023-01-11T01:32:55.148Z,99444.66
2023-01-11T01:34:27.170Z,99448.94
2023-01-11T01:35:59.202Z,99443.81
2023-01-11T01:37:31.280Z,99448.94
2023-01-11T01:39:05.042Z,99454.06
2023-01-11T01:40:45.595Z,99454.91
2023-01-11T01:42:19.725Z,99458.34
2023-01-11T01:45:29.393Z,99460.03
2023-01-11T01:47:03.733Z,99460.91
2023-01-11T01:48:36.489Z,99460.03
2023-01-11T01:50:15.624Z,99462.59
2023-01-11T01:51:54.133Z,99461.78
2023-01-11T01:53:33.317Z,99464.31
2023-01-11T01:55:08.763Z,99462.63
2023-01-11T01:56:48.033Z,99459.22
2023-01-11T01:58:22.877Z,99454.06
2023-01-11T01:59:57.259Z,99451.50
2023-01-11T02:01:47.970Z,99448.06
2023-01-11T02:03:23.308Z,99464.31
2023-01-11T02:04:56.778Z,99466.84
2023-01-11T02:06:28.807Z,99466.00
2023-01-11T02:08:01.175Z,99468.56
2023-01-11T02:10:02.864Z,99469.44
2023-01-11T02:11:34.979Z,99459.16
2023-01-11T02:13:10.406Z,99470.25
2023-01-11T02:14:43.929Z,99477.09
2023-01-11T02:16:15.851Z,99471.13
2023-01-11T02:17:47.926Z,99472.81
2023-01-11T02:19:55.686Z,99475.38
2023-01-11T02:21:56.990Z,99478.78
2023-01-11T02:23:41.412Z,99486.47
2023-01-11T02:25:48.500Z,99483.03
2023-01-11T02:27:23.277Z,99490.69
2023-01-11T02:29:27.112Z,99483.88
2023-01-11T02:31:04.676Z,99478.75
2023-01-11T02:33:13.331Z,99490.72
2023-01-11T02:34:59.105Z,99483.88
2023-01-11T02:37:01.458Z,99496.66
2023-01-11T02:38:37.373Z,99497.50
2023-01-11T02:40:21.747Z,99502.63
2023-01-11T02:42:50.103Z,99491.53
2023-01-11T02:45:01.876Z,99503.47
2023-01-11T02:46:50.099Z,99501.75
2023-01-11T02:48:35.654Z,99498.34
2023-01-11T02:50:27.579Z,99505.97
2023-01-11T02:52:03.791Z,99499.19
2023-01-11T02:53:42.912Z,99498.31
2023-01-11T02:55:17.820Z,99495.75
2023-01-11T02:56:52.613Z,99493.19
2023-01-11T02:58:29.118Z,99497.47
2023-01-11T03:00:01.813Z,99500.84
2023-01-11T03:01:33.919Z,99504.25
2023-01-11T03:03:19.009Z,99500.88
2023-01-11T03:04:51.115Z,99497.44
2023-01-11T03:06:32.824Z,99502.56
2023-01-11T03:08:30.550Z,99511.94
2023-01-11T03:10:27.747Z,99514.50
2023-01-11T03:12:24.340Z,99517.03
2023-01-11T03:14:25.007Z,99517.06
2023-01-11T03:16:10.010Z,99511.06
2023-01-11T03:18:10.299Z,99511.06
2023-01-11T03:19:54.235Z,99511.97
2023-01-11T03:21:42.008Z,99510.28
2023-01-11T03:23:20.050Z,99510.28
2023-01-11T03:25:19.221Z,99511.13
2023-01-11T03:27:30.225Z,99508.56
2023-01-11T03:29:27.855Z,99498.34
2023-01-11T03:31:08.370Z,99506.88
2023-01-11T03:32:45.328Z,99515.41
2023-01-11T03:34:30.108Z,99525.66
2023-01-11T03:36:22.126Z,99518.84
2023-01-11T03:38:18.664Z,99506.88
2023-01-11T03:40:03.195Z,99514.56
2023-01-11T03:41:37.580Z,99529.06
2023-01-11T03:43:13.844Z,99523.06
2023-01-11T03:44:49.360Z,99523.09
2023-01-11T03:46:36.629Z,99523.94
2023-01-11T03:48:11.430Z,99534.16
2023-01-11T03:49:53.326Z,99540.16
2023-01-11T03:51:28.305Z,99541.00
2023-01-11T03:53:00.998Z,99534.16
2023-01-11T03:54:33.857Z,99537.56
2023-01-11T03:56:08.954Z,99546.16
2023-01-11T03:57:44.394Z,99541.88
2023-01-11T03:59:16.449Z,99531.63
2023-01-11T04:00:49.179Z,99534.22
2023-01-11T04:02:25.917Z,99541.03
2023-01-11T04:03:58.038Z,99546.16
2023-01-11T04:05:30.060Z,99547.00
2023-01-11T04:07:02.142Z,99542.72
2023-01-11T04:08:34.313Z,99560.63
2023-01-11T04:10:06.979Z,99557.25
2023-01-11T04:11:39.022Z,99548.72
2023-01-11T04:13:11.089Z,99543.56
2023-01-11T04:14:43.194Z,99553.84
2023-01-11T04:16:15.319Z,99559.81
2023-01-11T04:17:47.318Z,99565.78
2023-01-11T04:19:19.309Z,99558.94
2023-01-11T04:20:51.294Z,99554.69
2023-01-11T04:22:23.267Z,99547.84
2023-01-11T04:23:55.422Z,99558.94
2023-01-11T04:25:27.857Z,99560.66
2023-01-11T04:26:59.855Z,99570.06
2023-01-11T04:28:31.927Z,99568.38
2023-01-11T04:30:04.692Z,99561.53
2023-01-11T04:31:37.052Z,99558.13
2023-01-11T04:33:11.286Z,99564.06
2023-01-11T04:34:43.465Z,99566.66
2023-01-11T04:36:15.504Z,99564.97
2023-01-11T04:37:48.341Z,99569.22
2023-01-11T04:39:20.330Z,99571.81
2023-01-11T04:41:12.301Z,99579.50
2023-01-11T04:42:46.809Z,99588.91
2023-01-11T04:44:18.844Z,99585.47
2023-01-11T04:45:50.906Z,99585.47
2023-01-11T04:49:05.905Z,99570.88
2023-01-11T04:50:37.938Z,99588.00
2023-01-11T04:52:14.751Z,99584.63
2023-01-11T04:53:49.951Z,99592.28
2023-01-11T04:55:22.041Z,99587.13
2023-01-11T04:56:56.207Z,99597.41
2023-01-11T04:58:32.393Z,99591.41
2023-01-11T05:00:11.079Z,99593.97
2023-01-11T05:01:43.147Z,99602.50
2023-01-11T05:03:15.149Z,99612.78
2023-01-11T05:04:47.267Z,99610.19
2023-01-11T05:06:20.136Z,99623.00
2023-01-11T05:07:52.219Z,99617.88
2023-01-11T05:09:24.248Z,99619.63
2023-01-11T05:10:58.155Z,99618.75
2023-01-11T05:12:30.403Z,99624.72
2023-01-11T05:14:02.403Z,99617.88
2023-01-11T05:15:35.277Z,99621.31
2023-01-11T05:17:07.336Z,99624.75
2023-01-11T05:18:41.440Z,99621.31
2023-01-11T05:20:13.732Z,99619.63
2023-01-11T05:23:20.022Z,99618.75
2023-01-11T05:24:52.164Z,99619.63
2023-01-11T05:26:29.343Z,99624.75
2023-01-11T05:28:01.558Z,99626.47
2023-01-11T05:29:33.634Z,99625.59
2023-01-11T05:31:06.082Z,99622.19
2023-01-11T05:32:38.002Z,99622.16
2023-01-11T05:34:12.960Z,99629.03
2023-01-11T05:35:44.996Z,99624.75
2023-01-11T05:37:17.066Z,99626.47
2023-01-11T05:38:52.152Z,99632.47
2023-01-11T05:40:24.200Z,99630.75
2023-01-11T05:41:56.194Z,99630.75
2023-01-11T05:43:29.815Z,99636.75
2023-01-11T05:45:19.923Z,99631.66
2023-01-11T05:46:51.953Z,99629.91
2023-01-11T05:48:24.592Z,99636.72
2023-01-11T05:49:56.666Z,99637.59
2023-01-11T05:51:33.099Z,99638.41
2023-01-11T05:53:05.083Z,99636.72
2023-01-11T05:54:37.558Z,99649.53
2023-01-11T05:56:09.615Z,99642.69
2023-01-11T05:57:45.036Z,99651.25
2023-01-11T05:59:17.049Z,99654.63
2023-01-11T06:00:50.510Z,99649.53
2023-01-11T06:02:22.652Z,99651.22
2023-01-11T06:03:54.795Z,99646.97
2023-01-11T06:05:26.756Z,99656.34
2023-01-11T06:06:58.816Z,99651.25
2023-01-11T06:08:30.943Z,99655.53
2023-01-11T06:10:03.010Z,99652.97
2023-01-11T06:11:35.089Z,99640.16
2023-01-11T06:13:25.810Z,99648.75
2023-01-11T06:14:57.917Z,99653.88
2023-01-11T06:16:29.964Z,99653.00
2023-01-11T06:18:01.943Z,99658.13
2023-01-11T06:19:33.981Z,99667.53
2023-01-11T06:21:06.819Z,99669.28
2023-01-11T06:22:39.098Z,99669.28
2023-01-11T06:24:14.342Z,99672.69
2023-01-11T06:27:19.071Z,99663.25
2023-01-11T06:28:51.607Z,99672.69
2023-01-11T06:30:26.181Z,99682.09
2023-01-11T06:31:58.694Z,99679.53
2023-01-11T06:33:31.108Z,99686.34
2023-01-11T06:35:03.105Z,99686.34
2023-01-11T06:36:35.115Z,99694.03
2023-01-11T06:38:09.377Z,99687.22
2023-01-11T06:39:41.437Z,99678.66
2023-01-11T06:41:13.801Z,99680.38
2023-01-11T06:42:45.868Z,99687.22
2023-01-11T06:44:17.916Z,99694.91
2023-01-11T06:45:50.297Z,99700.06
2023-01-11T06:47:22.379Z,99694.94
2023-01-11T06:48:54.342Z,99705.19
2023-01-11T06:50:26.978Z,99706.06
2023-01-11T06:51:59.022Z,99711.19
2023-01-11T06:53:30.988Z,99713.75
2023-01-11T06:55:03.321Z,99722.31
2023-01-11T06:56:35.312Z,99724.03
2023-01-11T06:58:07.578Z,99729.16
2023-01-11T06:59:40.104Z,99727.44
2023-01-11T07:01:12.318Z,99725.75
2023-01-11T07:02:45.420Z,99734.31
2023-01-11T07:04:18.999Z,99723.22
2023-01-11T07:05:51.253Z,99736.06
2023-01-11T07:07:23.322Z,99736.06
2023-01-11T07:08:55.323Z,99736.06
2023-01-11T07:10:27.502Z,99742.91
2023-01-11T07:11:59.463Z,99737.75
2023-01-11T07:13:31.504Z,99739.50
2023-01-11T07:15:06.074Z,99740.41
2023-01-11T07:16:38.089Z,99739.53
2023-01-11T07:18:10.875Z,99731.03
2023-01-11T07:19:42.920Z,99737.00
2023-01-11T07:21:14.940Z,99740.44
2023-01-11T07:22:47.324Z,99747.28
2023-01-11T07:24:20.690Z,99743.00
2023-01-11T07:25:56.148Z,99745.63
2023-01-11T07:27:28.279Z,99754.16
2023-01-11T07:29:00.278Z,99761.84
2023-01-11T07:30:51.947Z,99755.03
2023-01-11T07:32:28.885Z,99761.91
2023-01-11T07:34:00.893Z,99759.34
2023-01-11T07:35:33.044Z,99761.06
2023-01-11T07:37:05.204Z,99767.00
2023-01-11T07:38:37.317Z,99768.75
2023-01-11T07:40:10.246Z,99768.75
2023-01-11T07:42:00.986Z,99769.59
2023-01-11T07:43:33.816Z,99771.31
2023-01-11T07:45:06.440Z,99772.19
2023-01-11T07:46:38.576Z,99777.28
2023-01-11T07:48:11.454Z,99776.44
2023-01-11T07:49:43.499Z,99786.69
2023-01-11T07:51:17.102Z,99790.94
2023-01-11T07:52:52.055Z,99793.56
2023-01-11T07:54:25.072Z,99795.25
2023-01-11T07:55:57.127Z,99793.53
2023-01-11T07:57:31.816Z,99802.97
2023-01-11T07:59:04.130Z,99804.69
2023-01-11T08:02:07.967Z,99809.81
2023-01-11T08:03:40.226Z,99815.84
2023-01-11T08:05:12.373Z,99817.56
2023-01-11T08:06:44.330Z,99821.84
2023-01-11T08:08:16.521Z,99820.16
2023-01-11T08:09:48.551Z,99827.00
2023-01-11T08:11:39.286Z,99829.56
2023-01-11T08:13:33.447Z,99834.72
2023-01-11T08:15:06.404Z,99836.47
2023-01-11T08:16:38.538Z,99841.56
2023-01-11T08:18:12.172Z,99848.44
2023-01-11T08:19:44.508Z,99851.88
2023-01-11T08:21:17.753Z,99845.03
2023-01-11T08:22:50.245Z,99846.78
2023-01-11T08:24:22.331Z,99849.34
2023-01-11T08:25:57.426Z,99846.81
2023-01-11T08:27:29.526Z,99850.22
2023-01-11T08:29:01.725Z,99854.50
2023-01-11T08:30:34.025Z,99851.94
2023-01-11T08:32:06.490Z,99861.34
2023-01-11T08:33:38.554Z,99862.22
2023-01-11T08:35:10.786Z,99866.50
2023-01-11T08:36:42.889Z,99866.50
2023-01-11T08:38:15.321Z,99869.94
2023-01-11T08:39:48.606Z,99875.94
2023-01-11T08:41:20.628Z,99878.50
2023-01-11T08:42:58.699Z,99872.53
2023-01-11T08:44:34.660Z,99876.78
2023-01-11T08:46:08.222Z,99883.66
2023-01-11T08:47:40.344Z,99887.94
2023-01-11T08:49:12.659Z,99887.94
2023-01-11T08:50:47.546Z,99891.34
2023-01-11T08:52:19.771Z,99893.06
2023-01-11T08:53:52.932Z,99892.22
2023-01-11T08:55:24.978Z,99894.78
2023-01-11T08:56:56.913Z,99896.50
2023-01-11T08:58:29.622Z,99894.78
2023-01-11T09:00:01.582Z,99898.22
2023-01-11T09:01:36.329Z,99902.50
2023-01-11T09:03:08.947Z,99902.53
2023-01-11T09:04:42.065Z,99904.28
2023-01-11T09:06:14.020Z,99910.25
2023-01-11T09:07:46.409Z,99909.41
2023-01-11T09:09:18.550Z,99903.41
2023-01-11T09:10:50.901Z,99908.53
2023-01-11T09:12:22.917Z,99915.41
2023-01-11T09:13:57.826Z,99906.00
2023-01-11T09:15:30.508Z,99908.53
2023-01-11T09:17:02.611Z,99906.84
2023-01-11T09:18:34.716Z,99903.41
2023-01-11T09:20:07.438Z,99903.44
2023-01-11T09:21:39.468Z,99904.31
2023-01-11T09:23:11.547Z,99903.44
2023-01-11T09:24:43.656Z,99900.00
2023-01-11T09:26:16.006Z,99898.31
2023-01-11T09:27:49.598Z,99900.91
2023-01-11T09:29:21.614Z,99901.78
2023-01-11T09:30:54.003Z,99899.19
2023-01-11T09:32:26.036Z,99900.94
2023-01-11T09:33:58.065Z,99903.47
2023-01-11T09:35:30.165Z,99906.06
2023-01-11T09:37:04.355Z,99911.19
2023-01-11T09:38:38.323Z,99906.06
2023-01-11T09:40:21.124Z,99916.34
2023-01-11T09:42:12.952Z,99907.78
2023-01-11T09:45:24.672Z,99907.78
2023-01-11T09:47:12.631Z,99913.78
2023-01-11T09:48:47.757Z,99910.34
2023-01-11T09:50:25.062Z,99912.94
2023-01-11T09:52:07.206Z,99913.81
2023-01-11T09:53:40.477Z,99912.94
2023-01-11T09:55:20.569Z,99909.50
2023-01-11T09:57:02.296Z,99912.94
2023-01-11T09:58:34.519Z,99912.06
2023-01-11T10:00:16.757Z,99906.94
2023-01-11T10:01:54.888Z,99913.78
2023-01-11T10:03:37.417Z,99906.94
2023-01-11T10:05:41.932Z,99909.53
2023-01-11T10:07:17.410Z,99915.53
2023-01-11T10:18:32.089Z,99926.66
2023-01-11T10:18:34.381Z,99928.34
2023-01-11T10:19:48.410Z,99930.97
2023-01-11T10:21:31.997Z,99926.66
2023-01-11T10:23:16.013Z,99922.38
2023-01-11T10:24:53.391Z,99934.41
2023-01-11T10:26:29.177Z,99930.97
2023-01-11T10:28:08.905Z,99936.09
2023-01-11T10:29:54.369Z,99937.81
2023-01-11T10:31:47.719Z,99941.25
2023-01-11T10:34:03.001Z,99942.97
2023-01-11T10:36:06.340Z,99935.25
2023-01-11T10:38:10.830Z,99941.25
2023-01-11T10:40:19.497Z,99942.97
2023-01-11T10:42:01.048Z,99940.38
2023-01-11T10:43:37.921Z,99942.97
2023-01-11T10:45:26.447Z,99945.56
2023-01-11T10:47:00.015Z,99941.25
2023-01-11T10:48:38.482Z,99942.94
2023-01-11T10:50:41.593Z,99944.69
2023-01-11T10:52:35.488Z,99946.38
2023-01-11T10:54:18.266Z,99946.41
2023-01-11T10:56:08.488Z,99952.38
2023-01-11T10:58:01.858Z,99951.53
2023-01-11T11:00:05.899Z,99953.25
2023-01-11T11:02:05.346Z,99952.38
2023-01-11T11:03:53.868Z,99954.09
2023-01-11T11:05:47.698Z,99950.69
2023-01-11T11:07:26.306Z,99948.97
2023-01-11T11:09:33.446Z,99950.69
2023-01-11T11:11:13.979Z,99959.25
2023-01-11T11:13:24.626Z,99959.25
2023-01-11T11:15:14.693Z,99960.13
2023-01-11T11:17:21.930Z,99970.41
2023-01-11T11:18:58.811Z,99965.25
2023-01-11T11:20:32.689Z,99968.66
2023-01-11T11:22:04.860Z,99978.09
2023-01-11T11:23:37.519Z,99972.09
2023-01-11T11:25:55.769Z,99974.66
2023-01-11T11:27:40.418Z,99973.81
2023-01-11T11:29:20.917Z,99974.69
2023-01-11T11:30:54.820Z,99969.56
2023-01-11T11:32:32.091Z,99972.13
2023-01-11T11:34:17.045Z,99964.41
2023-01-11T11:36:12.866Z,99963.56
2023-01-11T11:37:45.305Z,99966.13
2023-01-11T11:39:28.569Z,99963.53
2023-01-11T11:41:12.592Z,99965.25
2023-01-11T11:42:44.584Z,99981.56
2023-01-11T11:44:21.625Z,99970.41
2023-01-11T11:46:02.282Z,99970.41
2023-01-11T11:47:34.344Z,99972.97
2023-01-11T11:49:13.751Z,99981.56
2023-01-11T11:50:46.799Z,99974.66
2023-01-11T11:52:18.955Z,99969.50
2023-01-11T11:53:53.930Z,99983.25
2023-01-11T11:55:28.918Z,99975.53
2023-01-11T11:57:13.730Z,99982.41
2023-01-11T11:58:46.270Z,99984.97
2023-01-11T12:00:29.824Z,99982.38
2023-01-11T12:02:04.230Z,99988.38
2023-01-11T12:03:36.457Z,99984.97
2023-01-11T12:05:11.218Z,99984.97
2023-01-11T12:06:43.571Z,99976.41
2023-01-11T12:08:15.907Z,99977.28
2023-01-11T12:09:57.002Z,99975.53
2023-01-11T12:13:03.814Z,99975.53
2023-01-11T12:14:36.154Z,99984.13
2023-01-11T12:16:21.278Z,99973.81
2023-01-11T12:17:54.831Z,99977.25
2023-01-11T12:19:46.171Z,99979.00
2023-01-11T12:21:27.031Z,99988.44
2023-01-11T12:23:26.630Z,99984.13
2023-01-11T12:25:14.571Z,99987.56
2023-01-11T12:26:59.485Z,99985.00
2023-01-11T12:28:52.412Z,99990.13
2023-01-11T12:30:36.454Z,99990.13
2023-01-11T12:32:14.469Z,99996.13
2023-01-11T12:34:17.093Z,99994.44
2023-01-11T12:36:07.167Z,99993.56
2023-01-11T12:37:59.242Z,99995.28
2023-01-11T12:39:44.293Z,99991.00
2023-01-11T12:41:21.226Z,99989.28
2023-01-11T12:43:14.434Z,99988.44
2023-01-11T12:44:55.587Z,99985.84
2023-01-11T12:46:33.593Z,99989.28
2023-01-11T12:48:23.760Z,99989.25
2023-01-11T12:50:27.738Z,99985.81
2023-01-11T12:52:18.111Z,99989.25
2023-01-11T12:53:56.748Z,99990.13
2023-01-11T12:55:44.244Z,99990.09
2023-01-11T12:57:35.327Z,99997.00
2023-01-11T12:59:24.789Z,99995.25
2023-01-11T13:01:18.840Z,99995.28
2023-01-11T13:03:14.626Z,99999.59
2023-01-11T13:05:04.488Z,100004.72
2023-01-11T13:06:41.435Z,100016.72
2023-01-11T13:08:44.732Z,100009.00
2023-01-11T13:10:22.274Z,100016.72
2023-01-11T13:12:03.462Z,100008.13
2023-01-11T13:13:56.741Z,100014.16
2023-01-11T13:17:34.459Z,100017.56
2023-01-11T13:19:12.169Z,100024.44
2023-01-11T13:21:02.505Z,100017.56
2023-01-11T13:22:42.602Z,100023.56
2023-01-11T13:24:18.224Z,100025.28
2023-01-11T13:25:55.257Z,100027.00
2023-01-11T13:27:29.260Z,100028.69
2023-01-11T13:29:08.195Z,100032.13
2023-01-11T13:30:41.286Z,100030.44
2023-01-11T13:32:19.649Z,100033.03
2023-01-11T13:33:57.931Z,100039.88
2023-01-11T13:35:47.167Z,100035.59
2023-01-11T13:37:49.346Z,100033.00
2023-01-11T13:39:23.402Z,100040.72
2023-01-11T13:41:00.555Z,100044.19
2023-01-11T13:42:41.366Z,100039.03
2023-01-11T13:44:27.377Z,100040.72
2023-01-11T13:46:07.107Z,100039.88
2023-01-11T13:47:57.353Z,100039.03
2023-01-11T13:49:53.582Z,100035.56
2023-01-11T13:51:35.568Z,100041.56
2023-01-11T13:53:39.621Z,100044.13
2023-01-11T13:55:25.978Z,100047.56
2023-01-11T13:57:05.901Z,100056.13
2023-01-11T13:59:06.572Z,100051.84
2023-01-11T14:00:42.433Z,100056.97
2023-01-11T14:02:32.960Z,100061.25
2023-01-11T14:04:10.091Z,100056.09
2023-01-11T14:06:00.145Z,100057.84
2023-01-11T14:07:50.188Z,100064.69
2023-01-11T14:09:51.811Z,100060.38
2023-01-11T14:11:45.387Z,100060.41
2023-01-11T14:13:59.979Z,100072.44
2023-01-11T14:15:49.282Z,100061.28
2023-01-11T14:17:48.659Z,100066.44
2023-01-11T14:19:28.816Z,100069.00
2023-01-11T14:21:08.934Z,100074.97
2023-01-11T14:22:59.219Z,100080.97
2023-01-11T14:24:35.470Z,100070.69
2023-01-11T14:26:25.779Z,100075.84
2023-01-11T14:28:20.474Z,100087.00
2023-01-11T14:30:10.878Z,100080.09
2023-01-11T14:31:55.679Z,100082.69
2023-01-11T14:33:36.972Z,100091.28
2023-01-11T14:35:21.363Z,100091.25
2023-01-11T14:37:12.740Z,100092.06
2023-01-11T14:38:52.011Z,100093.81
2023-01-11T14:40:27.192Z,100094.66
2023-01-11T14:42:29.343Z,100097.25
2023-01-11T14:44:24.224Z,100098.97
2023-01-11T14:46:05.387Z,100093.81
2023-01-11T14:47:54.607Z,100100.66
2023-01-11T14:49:45.493Z,100099.81
2023-01-11T14:51:35.441Z,100105.81
2023-01-11T14:53:10.072Z,100113.47
2023-01-11T14:54:52.396Z,100113.50
2023-01-11T14:56:45.188Z,100113.47
2023-01-11T14:58:21.744Z,100110.03
2023-01-11T14:59:53.873Z,100113.47
2023-01-11T15:01:26.013Z,100115.19
2023-01-11T15:03:00.709Z,100117.75
2023-01-11T15:04:38.504Z,100116.03
2023-01-11T15:06:20.683Z,100128.03
2023-01-11T15:07:53.196Z,100121.19
2023-01-11T15:09:50.712Z,100126.31
2023-01-11T15:11:37.718Z,100124.59
2023-01-11T15:13:16.036Z,100133.13
2023-01-11T15:14:52.522Z,100133.97
2023-01-11T15:16:49.122Z,100140.00
2023-01-11T15:18:23.593Z,100146.00
2023-01-11T15:19:55.585Z,100139.13
2023-01-11T15:21:27.767Z,100137.41
2023-01-11T15:23:16.874Z,100146.84
2023-01-11T15:26:23.173Z,100149.41
2023-01-11T15:27:55.181Z,100146.84
2023-01-11T15:29:37.813Z,100149.44
2023-01-11T15:31:33.976Z,100144.28
2023-01-11T15:33:18.594Z,100140.88
2023-01-11T15:34:52.509Z,100137.41
2023-01-11T15:36:24.958Z,100140.81
2023-01-11T15:38:18.373Z,100140.84
2023-01-11T15:40:09.630Z,100141.66
2023-01-11T15:42:04.909Z,100145.09
2023-01-11T15:44:15.590Z,100148.53
2023-01-11T15:46:07.107Z,100150.25
2023-01-11T15:48:04.764Z,100154.56
2023-01-11T15:50:02.716Z,100160.56
2023-01-11T15:51:49.760Z,100156.25
2023-01-11T15:53:26.949Z,100151.91
2023-01-11T15:55:04.994Z,100161.41
2023-01-11T15:56:46.381Z,100161.41
2023-01-11T15:58:23.871Z,100168.28
2023-01-11T16:00:24.840Z,100171.69
2023-01-11T16:02:14.959Z,100175.13
2023-01-11T16:03:58.942Z,100180.25
2023-01-11T16:05:36.749Z,100176.81
2023-01-11T16:07:18.973Z,100174.22
2023-01-11T16:08:59.391Z,100173.38
2023-01-11T16:10:56.289Z,100186.25
2023-01-11T16:12:46.847Z,100182.78
2023-01-11T16:14:34.706Z,100182.78
2023-01-11T16:16:19.681Z,100183.66
2023-01-11T16:17:51.867Z,100184.50
2023-01-11T16:19:32.024Z,100181.94
2023-01-11T16:21:34.002Z,100187.06
2023-01-11T16:24:41.399Z,100198.22
2023-01-11T16:26:20.668Z,100195.66
2023-01-11T16:27:54.976Z,100199.09
2023-01-11T16:29:30.777Z,100198.19
2023-01-11T16:31:05.140Z,100200.78
2023-01-11T16:32:37.921Z,100198.16
2023-01-11T16:34:09.908Z,100191.28
2023-01-11T16:35:42.248Z,100203.28
2023-01-11T16:37:39.263Z,100204.19
2023-01-11T16:39:13.589Z,100212.72
2023-01-11T16:40:50.048Z,100206.72
2023-01-11T16:42:22.337Z,100217.84
2023-01-11T16:44:00.917Z,100214.44
2023-01-11T16:45:42.834Z,100215.28
2023-01-11T16:47:15.898Z,100215.25
2023-01-11T16:48:47.999Z,100215.22
2023-01-11T16:50:22.660Z,100222.09
2023-01-11T16:51:58.015Z,100228.13
2023-01-11T16:53:54.218Z,100223.00
2023-01-11T16:55:57.607Z,100222.09
2023-01-11T16:57:37.549Z,100216.09
2023-01-11T16:59:15.415Z,100230.66
2023-01-11T17:00:59.193Z,100227.22
2023-01-11T17:02:36.074Z,100228.09
2023-01-11T17:04:29.931Z,100234.06
2023-01-11T17:06:08.167Z,100233.19
2023-01-11T17:07:40.235Z,100238.28
2023-01-11T17:09:21.282Z,100238.31
2023-01-11T17:10:56.339Z,100240.88
2023-01-11T17:12:28.479Z,100245.97
2023-01-11T17:14:20.050Z,100247.72
2023-01-11T17:15:59.106Z,100246.84
2023-01-11T17:17:38.167Z,100255.38
2023-01-11T17:19:17.657Z,100248.53
2023-01-11T17:20:53.482Z,100252.78
2023-01-11T17:22:27.996Z,100246.78
2023-01-11T17:24:02.920Z,100249.31
2023-01-11T17:25:44.896Z,100254.41
2023-01-11T17:27:23.388Z,100254.38
2023-01-11T17:28:57.665Z,100255.19
2023-01-11T17:30:30.493Z,100251.75
2023-01-11T17:32:05.628Z,100249.19
2023-01-11T17:33:38.192Z,100253.41
2023-01-11T17:35:18.677Z,100253.44
2023-01-11T17:36:51.190Z,100249.97
2023-01-11T17:38:26.277Z,100246.59
2023-01-11T17:39:58.655Z,100242.25
2023-01-11T17:41:49.700Z,100243.13
2023-01-11T17:43:42.623Z,100227.72
2023-01-11T17:45:22.004Z,100235.47
2023-01-11T17:46:54.014Z,100228.59
2023-01-11T17:48:27.472Z,100233.75
2023-01-11T17:50:02.381Z,100238.00
2023-01-11T17:51:35.214Z,100241.41
2023-01-11T17:54:39.057Z,100238.78
2023-01-11T17:56:35.755Z,100236.28
2023-01-11T17:58:28.989Z,100241.41
2023-01-11T18:00:29.885Z,100245.69
2023-01-11T18:02:05.083Z,100245.63
2023-01-11T18:03:57.393Z,100240.50
2023-01-11T18:05:30.206Z,100252.44
2023-01-11T18:07:18.148Z,100243.06
2023-01-11T18:08:55.179Z,100249.88
2023-01-11T18:10:33.168Z,100249.84
2023-01-11T18:12:14.001Z,100246.44
2023-01-11T18:13:46.001Z,100242.09
2023-01-11T18:15:27.068Z,100252.44
2023-01-11T18:17:07.731Z,100248.19
2023-01-11T18:18:42.651Z,100246.44
2023-01-11T18:20:14.719Z,100245.53
2023-01-11T18:21:54.373Z,100252.44
2023-01-11T18:23:27.300Z,100252.41
2023-01-11T18:25:01.272Z,100255.00
2023-01-11T18:26:33.306Z,100258.38
2023-01-11T18:29:48.122Z,100266.13
2023-01-11T18:31:20.302Z,100256.69
2023-01-11T18:32:52.362Z,100254.09
2023-01-11T18:34:24.560Z,100254.94
2023-01-11T18:36:04.264Z,100258.41
2023-01-11T18:37:37.940Z,100256.69
2023-01-11T18:39:11.595Z,100266.94
2023-01-11T18:40:44.545Z,100259.22
2023-01-11T18:42:19.650Z,100260.09
2023-01-11T18:43:52.846Z,100262.63
2023-01-11T18:45:25.753Z,100266.09
2023-01-11T18:46:57.803Z,100262.63
2023-01-11T18:48:30.010Z,100258.34
2023-01-11T18:50:02.096Z,100260.91
2023-01-11T18:51:35.956Z,100260.06
2023-01-11T18:53:11.362Z,100259.19
2023-01-11T18:54:43.587Z,100267.72
2023-01-11T18:58:01.348Z,100265.13
2023-01-11T18:59:33.724Z,100267.72
2023-01-11T19:01:07.885Z,100267.75
2023-01-11T19:02:44.003Z,100269.47
2023-01-11T19:04:16.210Z,100267.72
2023-01-11T19:05:48.212Z,100271.16
2023-01-11T19:07:21.301Z,100268.59
2023-01-11T19:08:53.411Z,100269.44
2023-01-11T19:10:25.458Z,100270.25
2023-01-11T19:11:57.632Z,100276.28
2023-01-11T19:13:32.105Z,100275.44
2023-01-11T19:15:04.411Z,100276.25
2023-01-11T19:16:38.929Z,100277.13
2023-01-11T19:18:10.901Z,100278.84
2023-01-11T19:19:43.025Z,100272.84
2023-01-11T19:21:15.184Z,100271.16
2023-01-11T19:22:47.248Z,100275.41
2023-01-11T19:24:19.269Z,100266.00
2023-01-11T19:25:58.509Z,100265.19
2023-01-11T19:27:30.687Z,100266.00
2023-01-11T19:29:02.805Z,100258.28
2023-01-11T19:30:34.937Z,100261.69
2023-01-11T19:32:07.013Z,100266.00
2023-01-11T19:33:40.568Z,100270.28
2023-01-11T19:35:12.510Z,100271.16
2023-01-11T19:36:44.796Z,100274.53
2023-01-11T19:38:18.761Z,100277.91
2023-01-11T19:39:50.942Z,100292.44